createdAt,value
2019-01-10T00:00:21.757Z,2.68
2019-01-10T00:02:50.152Z,2.75
2019-01-10T00:05:18.528Z,2.26
2019-01-10T00:07:47.213Z,2.41
2019-01-10T00:10:17.771Z,3.14
2019-01-10T00:12:46.087Z,2.47
2019-01-10T00:15:18.765Z,2.59
2019-01-10T00:17:47.115Z,2.56
2019-01-10T00:20:17.080Z,2.54
2019-01-10T00:22:45.502Z,2.49
2019-01-10T00:25:17.065Z,2.34
2019-01-10T00:27:45.388Z,2.56
2019-01-10T00:30:18.873Z,2.41
2019-01-10T00:32:48.712Z,2.89
2019-01-10T00:35:17.742Z,2.37
2019-01-10T00:37:46.121Z,2.16
2019-01-10T00:40:16.491Z,2.76
2019-01-10T00:42:49.469Z,2.40
2019-01-10T00:45:16.948Z,2.49
2019-01-10T00:47:46.198Z,2.29
2019-01-10T00:50:17.316Z,2.25
2019-01-10T00:52:45.777Z,2.64
2019-01-10T00:55:14.384Z,2.55
2019-01-10T00:57:43.039Z,2.63
2019-01-10T01:00:14.522Z,2.29
2019-01-10T01:02:43.253Z,2.32
2019-01-10T01:05:13.783Z,2.52
2019-01-10T01:07:42.590Z,2.73
2019-01-10T01:10:14.228Z,2.75
2019-01-10T01:12:42.554Z,3.12
2019-01-10T01:15:13.668Z,3.00
2019-01-10T01:17:42.297Z,2.62
2019-01-10T01:20:12.735Z,2.77
2019-01-10T01:22:41.120Z,2.77
2019-01-10T01:25:11.274Z,2.87
2019-01-10T01:27:39.652Z,2.72
2019-01-10T01:30:13.905Z,2.69
2019-01-10T01:32:42.351Z,2.86
2019-01-10T01:35:11.047Z,2.93
2019-01-10T01:37:39.346Z,2.61
2019-01-10T01:40:16.736Z,2.68
2019-01-10T01:42:45.486Z,2.89
2019-01-10T01:45:15.847Z,3.30
2019-01-10T01:47:44.223Z,3.04
2019-01-10T01:50:15.673Z,3.11
2019-01-10T01:52:44.002Z,2.82
2019-01-10T01:55:12.380Z,2.86
2019-01-10T01:57:40.703Z,2.52
2019-01-10T02:00:11.926Z,2.47
2019-01-10T02:02:40.252Z,2.65
2019-01-10T02:05:09.199Z,2.74
2019-01-10T02:07:38.350Z,3.00
2019-01-10T02:10:09.827Z,2.78
2019-01-10T02:12:38.221Z,2.53
2019-01-10T02:15:06.769Z,2.65
2019-01-10T02:17:35.108Z,2.30
2019-01-10T02:20:05.780Z,2.73
2019-01-10T02:22:34.265Z,2.29
2019-01-10T02:25:02.906Z,2.72
2019-01-10T02:27:31.358Z,2.53
2019-01-10T02:29:59.662Z,2.89
2019-01-10T02:32:28.041Z,2.58
2019-01-10T02:34:56.436Z,2.90
2019-01-10T02:37:24.750Z,2.89
2019-01-10T02:39:53.145Z,2.71
2019-01-10T02:42:21.532Z,2.57
2019-01-10T02:44:50.227Z,2.72
2019-01-10T02:47:18.628Z,2.87
2019-01-10T02:49:46.985Z,2.59
2019-01-10T02:52:15.322Z,2.38
2019-01-10T02:54:43.630Z,2.66
2019-01-10T02:57:11.957Z,2.82
2019-01-10T02:59:40.260Z,2.60
2019-01-10T03:02:09.605Z,2.69
2019-01-10T03:04:37.907Z,2.59
2019-01-10T03:07:06.224Z,2.56
2019-01-10T03:09:34.557Z,2.97
2019-01-10T03:12:03.140Z,3.01
2019-01-10T03:14:31.470Z,2.63
2019-01-10T03:16:59.932Z,2.85
2019-01-10T03:19:28.269Z,2.46
2019-01-10T03:21:56.651Z,2.66
2019-01-10T03:24:25.343Z,2.37
2019-01-10T03:26:53.752Z,2.91
2019-01-10T03:29:22.519Z,2.84
2019-01-10T03:31:50.877Z,2.84
2019-01-10T03:34:19.491Z,3.24
2019-01-10T03:36:47.814Z,2.26
2019-01-10T03:39:16.125Z,2.64
2019-01-10T03:41:45.600Z,2.74
2019-01-10T03:44:14.507Z,2.31
2019-01-10T03:46:42.839Z,2.67
2019-01-10T03:49:11.158Z,2.75
2019-01-10T03:51:39.866Z,2.34
2019-01-10T03:54:08.253Z,2.37
2019-01-10T03:56:36.560Z,2.52
2019-01-10T03:59:04.963Z,2.50
2019-01-10T04:01:33.629Z,2.34
2019-01-10T04:04:01.969Z,2.62
2019-01-10T04:06:30.275Z,3.02
2019-01-10T04:08:58.603Z,2.03
2019-01-10T04:11:26.919Z,2.62
2019-01-10T04:13:57.571Z,2.46
2019-01-10T04:16:25.354Z,2.15
2019-01-10T04:18:53.681Z,2.55
2019-01-10T04:21:22.199Z,2.81
2019-01-10T04:23:52.172Z,2.37
2019-01-10T04:26:20.475Z,2.38
2019-01-10T04:28:49.019Z,2.17
2019-01-10T04:31:17.343Z,2.36
2019-01-10T04:33:45.656Z,2.37
2019-01-10T04:36:13.987Z,2.40
2019-01-10T04:38:42.405Z,2.41
2019-01-10T04:41:10.751Z,2.70
2019-01-10T04:43:39.063Z,2.53
2019-01-10T04:46:07.881Z,2.62
2019-01-10T04:48:36.219Z,2.63
2019-01-10T04:51:04.599Z,3.10
2019-01-10T04:53:33.332Z,2.83
2019-01-10T04:56:01.642Z,3.00
2019-01-10T04:58:29.952Z,2.86
2019-01-10T05:00:58.357Z,2.89
2019-01-10T05:03:26.733Z,3.18
2019-01-10T05:05:55.135Z,3.03
2019-01-10T05:08:23.441Z,3.13
2019-01-10T05:10:51.768Z,2.79
2019-01-10T05:13:20.190Z,2.50
2019-01-10T05:15:48.527Z,3.01
2019-01-10T05:18:16.837Z,2.87
2019-01-10T05:20:45.211Z,3.10
2019-01-10T05:23:13.537Z,3.13
2019-01-10T05:25:41.844Z,3.24
2019-01-10T05:28:10.574Z,3.31
2019-01-10T05:30:38.882Z,2.89
2019-01-10T05:33:07.275Z,3.23
2019-01-10T05:35:35.650Z,3.35
2019-01-10T05:38:03.981Z,3.07
2019-01-10T05:40:32.394Z,3.11
2019-01-10T05:43:00.776Z,2.94
2019-01-10T05:45:29.168Z,3.32
2019-01-10T05:47:57.846Z,2.95
2019-01-10T05:50:26.934Z,3.27
2019-01-10T05:52:55.381Z,3.07
2019-01-10T05:55:23.777Z,2.73
2019-01-10T05:57:52.088Z,3.25
2019-01-10T06:00:23.134Z,3.05
2019-01-10T06:02:51.594Z,3.26
2019-01-10T06:05:19.993Z,3.27
2019-01-10T06:07:48.372Z,3.20
2019-01-10T06:10:19.709Z,3.20
2019-01-10T06:12:48.158Z,3.16
2019-01-10T06:15:17.034Z,3.33
2019-01-10T06:17:45.401Z,3.10
2019-01-10T06:20:16.951Z,3.25
2019-01-10T06:22:45.344Z,2.88
2019-01-10T06:25:14.200Z,2.91
2019-01-10T06:27:42.671Z,2.78
2019-01-10T06:30:16.584Z,2.79
2019-01-10T06:32:45.020Z,2.72
2019-01-10T06:35:13.760Z,2.74
2019-01-10T06:37:42.141Z,2.44
2019-01-10T06:40:13.507Z,2.83
2019-01-10T06:42:41.824Z,2.73
2019-01-10T06:45:12.284Z,2.81
2019-01-10T06:47:40.727Z,2.64
2019-01-10T06:50:11.697Z,2.62
2019-01-10T06:52:40.430Z,2.75
2019-01-10T06:55:10.898Z,2.61
2019-01-10T06:57:39.334Z,2.58
2019-01-10T07:00:13.780Z,2.68
2019-01-10T07:02:42.179Z,2.69
2019-01-10T07:05:11.202Z,2.88
2019-01-10T07:07:39.627Z,2.84
2019-01-10T07:10:11.105Z,2.51
2019-01-10T07:12:39.921Z,2.87
2019-01-10T07:15:08.653Z,2.64
2019-01-10T07:17:37.357Z,3.08
2019-01-10T07:20:09.105Z,2.65
2019-01-10T07:22:46.438Z,3.05
2019-01-10T07:25:14.813Z,2.61
2019-01-10T07:27:43.289Z,2.66
2019-01-10T07:30:14.787Z,2.72
2019-01-10T07:32:43.090Z,2.72
2019-01-10T07:35:11.903Z,2.50
2019-01-10T07:37:40.208Z,2.76
2019-01-10T07:40:12.180Z,2.62
2019-01-10T07:42:40.560Z,3.01
2019-01-10T07:45:15.032Z,2.60
2019-01-10T07:47:49.894Z,2.64
2019-01-10T07:50:20.433Z,2.82
2019-01-10T07:52:49.202Z,2.53
2019-01-10T07:55:17.900Z,2.59
2019-01-10T07:57:46.270Z,2.76
2019-01-10T08:00:19.897Z,2.61
2019-01-10T08:02:48.751Z,2.62
2019-01-10T08:05:17.158Z,2.85
2019-01-10T08:07:45.805Z,2.92
2019-01-10T08:10:16.061Z,2.95
2019-01-10T08:12:44.460Z,2.85
2019-01-10T08:15:16.173Z,3.55
2019-01-10T08:17:44.715Z,2.97
2019-01-10T08:20:13.967Z,3.02
2019-01-10T08:22:42.385Z,3.01
2019-01-10T08:25:10.768Z,3.25
2019-01-10T08:27:39.458Z,2.93
2019-01-10T08:30:19.719Z,3.45
2019-01-10T08:32:48.120Z,3.21
2019-01-10T08:35:18.956Z,2.90
2019-01-10T08:37:47.333Z,2.90
2019-01-10T08:40:15.729Z,3.11
2019-01-10T08:42:44.111Z,3.76
2019-01-10T08:45:21.120Z,3.79
2019-01-10T08:47:43.070Z,3.09
2019-01-10T08:50:17.935Z,3.28
2019-01-10T08:52:46.399Z,3.22
2019-01-10T08:55:14.797Z,3.42
2019-01-10T08:57:43.176Z,3.48
2019-01-10T09:00:16.543Z,3.35
2019-01-10T09:02:45.079Z,3.75
2019-01-10T09:05:13.755Z,3.31
2019-01-10T09:07:42.159Z,3.51
2019-01-10T09:10:14.505Z,3.50
2019-01-10T09:12:42.905Z,3.67
2019-01-10T09:15:11.287Z,3.24
2019-01-10T09:17:40.070Z,3.44
2019-01-10T09:20:11.599Z,3.62
2019-01-10T09:22:40.308Z,3.26
2019-01-10T09:25:08.696Z,3.58
2019-01-10T09:27:37.074Z,3.61
2019-01-10T09:30:08.587Z,3.62
2019-01-10T09:32:36.920Z,3.38
2019-01-10T09:35:06.007Z,3.77
2019-01-10T09:37:34.321Z,3.71
2019-01-10T09:40:02.740Z,3.60
2019-01-10T09:42:31.256Z,3.84
2019-01-10T09:44:59.775Z,3.46
2019-01-10T09:47:28.084Z,3.84
2019-01-10T09:49:56.408Z,4.22
2019-01-10T09:52:24.718Z,4.71
2019-01-10T09:54:53.050Z,4.95
2019-01-10T09:57:21.648Z,4.79
2019-01-10T09:59:50.436Z,4.50
2019-01-10T10:02:18.777Z,4.04
2019-01-10T10:04:47.105Z,4.58
2019-01-10T10:07:15.793Z,4.17
2019-01-10T10:09:44.099Z,4.37
2019-01-10T10:12:12.443Z,4.09
2019-01-10T10:14:40.818Z,3.87
2019-01-10T10:17:09.122Z,4.21
2019-01-10T10:19:37.730Z,4.02
2019-01-10T10:22:06.492Z,4.26
